sensor_id;sensor_type;location;lat;lon;timestamp;temperature;humidity
57664;DHT22;43493;53.098;6.064;2022-07-05T00:01:03;15.30;99.90
57664;DHT22;43493;53.098;6.064;2022-07-05T00:03:29;15.30;99.90
57664;DHT22;43493;53.098;6.064;2022-07-05T00:05:56;15.20;99.90
57664;DHT22;43493;53.098;6.064;2022-07-05T00:08:22;15.20;99.90
57664;DHT22;43493;53.098;6.064;2022-07-05T00:10:48;15.10;99.90
57664;DHT22;43493;53.098;6.064;2022-07-05T00:13:14;15.20;99.90
57664;DHT22;43493;53.098;6.064;2022-07-05T00:15:40;15.10;99.90
57664;DHT22;43493;53.098;6.064;2022-07-05T00:18:06;15.10;99.90
57664;DHT22;43493;53.098;6.064;2022-07-05T00:20:32;15.10;99.90
57664;DHT22;43493;53.098;6.064;2022-07-05T00:22:58;15.10;99.90
57664;DHT22;43493;53.098;6.064;2022-07-05T00:25:23;15.00;99.90
57664;DHT22;43493;53.098;6.064;2022-07-05T00:27:49;15.00;99.90
57664;DHT22;43493;53.098;6.064;2022-07-05T00:30:15;15.00;99.90
57664;DHT22;43493;53.098;6.064;2022-07-05T00:32:41;15.00;99.90
57664;DHT22;43493;53.098;6.064;2022-07-05T00:35:07;14.90;99.90
57664;DHT22;43493;53.098;6.064;2022-07-05T00:37:34;15.00;99.90
57664;DHT22;43493;53.098;6.064;2022-07-05T00:40:00;14.90;99.90
57664;DHT22;43493;53.098;6.064;2022-07-05T00:42:26;14.90;99.90
57664;DHT22;43493;53.098;6.064;2022-07-05T00:44:52;14.90;99.90
57664;DHT22;43493;53.098;6.064;2022-07-05T00:47:18;14.90;99.90
57664;DHT22;43493;53.098;6.064;2022-07-05T00:49:44;14.90;99.90
57664;DHT22;43493;53.098;6.064;2022-07-05T00:52:11;15.00;99.90
57664;DHT22;43493;53.098;6.064;2022-07-05T00:54:38;14.90;99.90
57664;DHT22;43493;53.098;6.064;2022-07-05T00:57:04;14.90;99.90
57664;DHT22;43493;53.098;6.064;2022-07-05T00:59:31;14.80;99.90
57664;DHT22;43493;53.098;6.064;2022-07-05T01:01:57;14.80;99.90
57664;DHT22;43493;53.098;6.064;2022-07-05T01:04:23;14.80;99.90
57664;DHT22;43493;53.098;6.064;2022-07-05T01:06:50;14.80;99.90
57664;DHT22;43493;53.098;6.064;2022-07-05T01:09:18;14.70;99.90
57664;DHT22;43493;53.098;6.064;2022-07-05T01:11:48;14.70;99.90
57664;DHT22;43493;53.098;6.064;2022-07-05T01:14:20;14.70;99.90
57664;DHT22;43493;53.098;6.064;2022-07-05T01:16:47;14.70;99.90
57664;DHT22;43493;53.098;6.064;2022-07-05T01:19:13;14.70;99.90
57664;DHT22;43493;53.098;6.064;2022-07-05T01:21:41;14.60;99.90
57664;DHT22;43493;53.098;6.064;2022-07-05T01:24:09;14.60;99.90
57664;DHT22;43493;53.098;6.064;2022-07-05T01:26:36;14.60;99.90
57664;DHT22;43493;53.098;6.064;2022-07-05T01:29:02;14.60;99.90
57664;DHT22;43493;53.098;6.064;2022-07-05T01:31:28;14.50;99.90
57664;DHT22;43493;53.098;6.064;2022-07-05T01:33:53;14.60;99.90
57664;DHT22;43493;53.098;6.064;2022-07-05T01:36:19;14.50;99.90
57664;DHT22;43493;53.098;6.064;2022-07-05T01:38:46;14.50;99.90
57664;DHT22;43493;53.098;6.064;2022-07-05T01:41:11;14.50;99.90
57664;DHT22;43493;53.098;6.064;2022-07-05T01:43:37;14.50;99.90
57664;DHT22;43493;53.098;6.064;2022-07-05T01:46:05;14.50;99.90
57664;DHT22;43493;53.098;6.064;2022-07-05T01:48:33;14.50;99.90
57664;DHT22;43493;53.098;6.064;2022-07-05T01:51:09;14.50;99.90
57664;DHT22;43493;53.098;6.064;2022-07-05T01:53:36;14.50;99.90
57664;DHT22;43493;53.098;6.064;2022-07-05T01:56:04;14.40;99.90
57664;DHT22;43493;53.098;6.064;2022-07-05T01:58:31;14.40;99.90
57664;DHT22;43493;53.098;6.064;2022-07-05T02:00:58;14.40;99.90
57664;DHT22;43493;53.098;6.064;2022-07-05T02:03:24;14.30;99.90
57664;DHT22;43493;53.098;6.064;2022-07-05T02:05:50;14.30;99.90
57664;DHT22;43493;53.098;6.064;2022-07-05T02:08:17;14.30;99.90
57664;DHT22;43493;53.098;6.064;2022-07-05T02:10:43;14.30;99.90
57664;DHT22;43493;53.098;6.064;2022-07-05T02:13:10;14.30;99.90
57664;DHT22;43493;53.098;6.064;2022-07-05T02:15:37;14.10;99.90
57664;DHT22;43493;53.098;6.064;2022-07-05T02:18:04;14.20;99.90
57664;DHT22;43493;53.098;6.064;2022-07-05T02:20:31;14.20;99.90
57664;DHT22;43493;53.098;6.064;2022-07-05T02:22:57;14.20;99.90
57664;DHT22;43493;53.098;6.064;2022-07-05T02:25:23;14.10;99.90
57664;DHT22;43493;53.098;6.064;2022-07-05T02:27:50;14.20;99.90
57664;DHT22;43493;53.098;6.064;2022-07-05T02:30:16;14.10;99.90
57664;DHT22;43493;53.098;6.064;2022-07-05T02:32:42;14.20;99.90
57664;DHT22;43493;53.098;6.064;2022-07-05T02:35:09;14.10;99.90
57664;DHT22;43493;53.098;6.064;2022-07-05T02:37:35;14.10;99.90
57664;DHT22;43493;53.098;6.064;2022-07-05T02:40:01;14.10;99.90
57664;DHT22;43493;53.098;6.064;2022-07-05T02:42:27;14.10;99.90
57664;DHT22;43493;53.098;6.064;2022-07-05T02:44:52;14.00;99.90
57664;DHT22;43493;53.098;6.064;2022-07-05T02:47:18;14.00;99.90
57664;DHT22;43493;53.098;6.064;2022-07-05T02:49:43;14.00;99.90
57664;DHT22;43493;53.098;6.064;2022-07-05T02:52:09;14.00;99.90
57664;DHT22;43493;53.098;6.064;2022-07-05T02:54:35;14.00;99.90
57664;DHT22;43493;53.098;6.064;2022-07-05T02:57:01;14.00;99.90
57664;DHT22;43493;53.098;6.064;2022-07-05T02:59:26;13.90;99.90
57664;DHT22;43493;53.098;6.064;2022-07-05T03:01:52;13.90;99.90
57664;DHT22;43493;53.098;6.064;2022-07-05T03:04:18;13.90;99.90
57664;DHT22;43493;53.098;6.064;2022-07-05T03:06:44;13.90;99.90
57664;DHT22;43493;53.098;6.064;2022-07-05T03:09:09;13.90;99.90
57664;DHT22;43493;53.098;6.064;2022-07-05T03:11:36;13.90;99.90
57664;DHT22;43493;53.098;6.064;2022-07-05T03:14:01;13.90;99.90
57664;DHT22;43493;53.098;6.064;2022-07-05T03:16:27;13.90;99.90
57664;DHT22;43493;53.098;6.064;2022-07-05T03:18:54;13.90;99.90
57664;DHT22;43493;53.098;6.064;2022-07-05T03:21:20;13.90;99.90
57664;DHT22;43493;53.098;6.064;2022-07-05T03:23:46;13.90;99.90
57664;DHT22;43493;53.098;6.064;2022-07-05T03:26:12;13.90;99.90
57664;DHT22;43493;53.098;6.064;2022-07-05T03:28:38;13.90;99.90
57664;DHT22;43493;53.098;6.064;2022-07-05T03:31:03;13.90;99.90
57664;DHT22;43493;53.098;6.064;2022-07-05T03:33:29;13.90;99.90
57664;DHT22;43493;53.098;6.064;2022-07-05T03:35:55;13.90;99.90
57664;DHT22;43493;53.098;6.064;2022-07-05T03:38:20;13.90;99.90
57664;DHT22;43493;53.098;6.064;2022-07-05T03:40:46;13.90;99.90
57664;DHT22;43493;53.098;6.064;2022-07-05T03:43:12;14.00;99.90
57664;DHT22;43493;53.098;6.064;2022-07-05T03:45:37;13.90;99.90
57664;DHT22;43493;53.098;6.064;2022-07-05T03:48:03;13.90;99.90
57664;DHT22;43493;53.098;6.064;2022-07-05T03:50:29;14.00;99.90
57664;DHT22;43493;53.098;6.064;2022-07-05T03:52:54;14.00;99.90
57664;DHT22;43493;53.098;6.064;2022-07-05T03:55:20;14.00;99.90
57664;DHT22;43493;53.098;6.064;2022-07-05T03:57:46;14.00;99.90
57664;DHT22;43493;53.098;6.064;2022-07-05T04:00:13;14.10;99.90
57664;DHT22;43493;53.098;6.064;2022-07-05T04:02:39;14.00;99.90
57664;DHT22;43493;53.098;6.064;2022-07-05T04:05:05;14.00;99.90
57664;DHT22;43493;53.098;6.064;2022-07-05T04:07:31;14.00;99.90
57664;DHT22;43493;53.098;6.064;2022-07-05T04:09:57;13.90;99.90
57664;DHT22;43493;53.098;6.064;2022-07-05T04:12:22;13.90;99.90
57664;DHT22;43493;53.098;6.064;2022-07-05T04:14:48;14.00;99.90
57664;DHT22;43493;53.098;6.064;2022-07-05T04:17:14;14.00;99.90
57664;DHT22;43493;53.098;6.064;2022-07-05T04:19:39;14.00;99.90
57664;DHT22;43493;53.098;6.064;2022-07-05T04:22:05;14.00;99.90
57664;DHT22;43493;53.098;6.064;2022-07-05T04:24:31;14.00;99.90
57664;DHT22;43493;53.098;6.064;2022-07-05T04:26:57;14.10;99.90
57664;DHT22;43493;53.098;6.064;2022-07-05T04:29:23;14.00;99.90
57664;DHT22;43493;53.098;6.064;2022-07-05T04:31:48;14.00;99.90
57664;DHT22;43493;53.098;6.064;2022-07-05T04:34:14;14.10;99.90
57664;DHT22;43493;53.098;6.064;2022-07-05T04:36:40;14.10;99.90
57664;DHT22;43493;53.098;6.064;2022-07-05T04:39:07;14.10;99.90
57664;DHT22;43493;53.098;6.064;2022-07-05T04:41:33;14.20;99.90
57664;DHT22;43493;53.098;6.064;2022-07-05T04:43:59;14.20;99.90
57664;DHT22;43493;53.098;6.064;2022-07-05T04:46:24;14.30;99.90
57664;DHT22;43493;53.098;6.064;2022-07-05T04:48:50;14.40;99.90
57664;DHT22;43493;53.098;6.064;2022-07-05T04:51:16;14.50;99.90
57664;DHT22;43493;53.098;6.064;2022-07-05T04:53:42;14.60;99.90
57664;DHT22;43493;53.098;6.064;2022-07-05T04:56:08;14.70;99.90
57664;DHT22;43493;53.098;6.064;2022-07-05T04:58:33;14.80;99.90
57664;DHT22;43493;53.098;6.064;2022-07-05T05:01:00;14.90;99.90
57664;DHT22;43493;53.098;6.064;2022-07-05T05:03:26;15.10;99.90
57664;DHT22;43493;53.098;6.064;2022-07-05T05:05:51;15.20;99.90
57664;DHT22;43493;53.098;6.064;2022-07-05T05:08:17;15.30;99.90
57664;DHT22;43493;53.098;6.064;2022-07-05T05:10:44;15.50;99.90
57664;DHT22;43493;53.098;6.064;2022-07-05T05:13:09;15.60;99.90
57664;DHT22;43493;53.098;6.064;2022-07-05T05:15:35;15.70;99.90
57664;DHT22;43493;53.098;6.064;2022-07-05T05:18:01;15.90;99.90
57664;DHT22;43493;53.098;6.064;2022-07-05T05:20:27;16.00;99.90
57664;DHT22;43493;53.098;6.064;2022-07-05T05:22:53;16.10;99.90
57664;DHT22;43493;53.098;6.064;2022-07-05T05:25:19;16.30;99.90
57664;DHT22;43493;53.098;6.064;2022-07-05T05:27:46;16.40;99.90
57664;DHT22;43493;53.098;6.064;2022-07-05T05:30:13;16.60;99.90
57664;DHT22;43493;53.098;6.064;2022-07-05T05:32:39;16.70;99.90
57664;DHT22;43493;53.098;6.064;2022-07-05T05:35:05;16.80;99.90
57664;DHT22;43493;53.098;6.064;2022-07-05T05:37:44;17.00;99.90
57664;DHT22;43493;53.098;6.064;2022-07-05T05:40:10;17.20;99.90
57664;DHT22;43493;53.098;6.064;2022-07-05T05:42:36;17.40;99.90
57664;DHT22;43493;53.098;6.064;2022-07-05T05:45:02;17.60;99.90
57664;DHT22;43493;53.098;6.064;2022-07-05T05:47:27;17.70;99.90
57664;DHT22;43493;53.098;6.064;2022-07-05T05:49:53;18.00;99.90
57664;DHT22;43493;53.098;6.064;2022-07-05T05:52:19;18.10;99.90
57664;DHT22;43493;53.098;6.064;2022-07-05T05:54:44;18.60;99.90
57664;DHT22;43493;53.098;6.064;2022-07-05T05:57:10;21.10;99.90
57664;DHT22;43493;53.098;6.064;2022-07-05T05:59:36;22.40;99.90
57664;DHT22;43493;53.098;6.064;2022-07-05T06:02:01;22.70;99.90
57664;DHT22;43493;53.098;6.064;2022-07-05T06:04:27;23.70;98.60
57664;DHT22;43493;53.098;6.064;2022-07-05T06:06:53;24.50;99.50
57664;DHT22;43493;53.098;6.064;2022-07-05T06:09:18;25.90;89.00
57664;DHT22;43493;53.098;6.064;2022-07-05T06:11:44;26.40;64.50
57664;DHT22;43493;53.098;6.064;2022-07-05T06:16:37;27.40;69.80
57664;DHT22;43493;53.098;6.064;2022-07-05T06:19:02;27.90;64.10
57664;DHT22;43493;53.098;6.064;2022-07-05T06:21:28;29.00;56.30
57664;DHT22;43493;53.098;6.064;2022-07-05T06:23:54;29.00;57.80
57664;DHT22;43493;53.098;6.064;2022-07-05T06:26:19;29.40;85.60
57664;DHT22;43493;53.098;6.064;2022-07-05T06:31:11;30.80;80.30
57664;DHT22;43493;53.098;6.064;2022-07-05T06:33:37;30.90;49.40
57664;DHT22;43493;53.098;6.064;2022-07-05T06:36:03;30.90;47.90
57664;DHT22;43493;53.098;6.064;2022-07-05T06:38:28;30.90;46.40
57664;DHT22;43493;53.098;6.064;2022-07-05T06:40:54;31.20;44.70
57664;DHT22;43493;53.098;6.064;2022-07-05T06:43:22;31.40;44.20
57664;DHT22;43493;53.098;6.064;2022-07-05T06:45:48;31.40;43.90
57664;DHT22;43493;53.098;6.064;2022-07-05T06:48:17;31.50;42.90
57664;DHT22;43493;53.098;6.064;2022-07-05T06:58:05;32.60;38.40
57664;DHT22;43493;53.098;6.064;2022-07-05T07:00:31;32.70;39.80
57664;DHT22;43493;53.098;6.064;2022-07-05T07:02:58;32.30;39.60
57664;DHT22;43493;53.098;6.064;2022-07-05T07:10:35;29.80;41.00
57664;DHT22;43493;53.098;6.064;2022-07-05T07:15:28;30.10;78.30
57664;DHT22;43493;53.098;6.064;2022-07-05T07:20:21;29.80;40.10
57664;DHT22;43493;53.098;6.064;2022-07-05T07:25:13;30.80;39.50
57664;DHT22;43493;53.098;6.064;2022-07-05T07:30:13;31.60;77.50
57664;DHT22;43493;53.098;6.064;2022-07-05T07:32:39;32.10;38.00
57664;DHT22;43493;53.098;6.064;2022-07-05T07:35:06;32.50;37.90
57664;DHT22;43493;53.098;6.064;2022-07-05T07:37:32;33.00;36.50
57664;DHT22;43493;53.098;6.064;2022-07-05T07:39:57;33.10;35.90
57664;DHT22;43493;53.098;6.064;2022-07-05T07:42:24;33.10;35.60
57664;DHT22;43493;53.098;6.064;2022-07-05T07:59:29;30.50;70.40
57664;DHT22;43493;53.098;6.064;2022-07-05T08:01:55;30.00;36.30
57664;DHT22;43493;53.098;6.064;2022-07-05T08:04:21;29.80;38.60
57664;DHT22;43493;53.098;6.064;2022-07-05T08:06:46;30.40;38.60
57664;DHT22;43493;53.098;6.064;2022-07-05T08:09:13;31.20;38.50
57664;DHT22;43493;53.098;6.064;2022-07-05T08:24:13;31.30;40.20
57664;DHT22;43493;53.098;6.064;2022-07-05T08:26:40;31.40;36.90
57664;DHT22;43493;53.098;6.064;2022-07-05T08:29:07;31.60;36.40
57664;DHT22;43493;53.098;6.064;2022-07-05T08:36:28;30.20;36.60
57664;DHT22;43493;53.098;6.064;2022-07-05T08:38:54;29.80;37.80
57664;DHT22;43493;53.098;6.064;2022-07-05T08:41:21;29.40;47.50
57664;DHT22;43493;53.098;6.064;2022-07-05T08:43:48;28.90;38.80
57664;DHT22;43493;53.098;6.064;2022-07-05T08:48:48;28.20;38.40
57664;DHT22;43493;53.098;6.064;2022-07-05T08:51:16;28.60;40.10
57664;DHT22;43493;53.098;6.064;2022-07-05T08:53:43;29.20;39.90
57664;DHT22;43493;53.098;6.064;2022-07-05T08:56:10;29.30;39.10
57664;DHT22;43493;53.098;6.064;2022-07-05T08:58:36;28.80;38.80
57664;DHT22;43493;53.098;6.064;2022-07-05T09:01:03;27.90;39.10
57664;DHT22;43493;53.098;6.064;2022-07-05T09:03:53;27.20;40.20
57664;DHT22;43493;53.098;6.064;2022-07-05T09:06:23;26.50;41.50
57664;DHT22;43493;53.098;6.064;2022-07-05T09:08:51;26.10;43.00
57664;DHT22;43493;53.098;6.064;2022-07-05T09:11:23;25.60;43.50
57664;DHT22;43493;53.098;6.064;2022-07-05T09:13:50;25.20;44.50
57664;DHT22;43493;53.098;6.064;2022-07-05T09:16:16;24.80;45.30
57664;DHT22;43493;53.098;6.064;2022-07-05T09:18:53;24.80;46.40
57664;DHT22;43493;53.098;6.064;2022-07-05T09:21:23;24.90;46.20
57664;DHT22;43493;53.098;6.064;2022-07-05T09:24:04;24.80;46.40
57664;DHT22;43493;53.098;6.064;2022-07-05T09:26:38;24.80;45.90
57664;DHT22;43493;53.098;6.064;2022-07-05T09:29:09;24.70;44.70
57664;DHT22;43493;53.098;6.064;2022-07-05T09:31:40;24.60;45.10
57664;DHT22;43493;53.098;6.064;2022-07-05T09:34:10;24.50;45.00
57664;DHT22;43493;53.098;6.064;2022-07-05T09:36:52;24.60;45.50
57664;DHT22;43493;53.098;6.064;2022-07-05T09:39:39;24.80;45.60
57664;DHT22;43493;53.098;6.064;2022-07-05T09:44:41;24.30;45.30
57664;DHT22;43493;53.098;6.064;2022-07-05T09:47:18;24.20;45.90
57664;DHT22;43493;53.098;6.064;2022-07-05T09:49:46;24.00;46.40
57664;DHT22;43493;53.098;6.064;2022-07-05T09:52:28;23.80;46.40
57664;DHT22;43493;53.098;6.064;2022-07-05T09:55:01;23.70;47.10
57664;DHT22;43493;53.098;6.064;2022-07-05T09:57:27;23.70;47.30
57664;DHT22;43493;53.098;6.064;2022-07-05T10:00:20;23.80;47.60
57664;DHT22;43493;53.098;6.064;2022-07-05T10:02:51;24.00;47.90
57664;DHT22;43493;53.098;6.064;2022-07-05T10:05:20;24.10;47.80
57664;DHT22;43493;53.098;6.064;2022-07-05T10:07:48;24.10;47.20
57664;DHT22;43493;53.098;6.064;2022-07-05T10:12:53;23.90;47.10
57664;DHT22;43493;53.098;6.064;2022-07-05T10:17:49;23.60;48.00
57664;DHT22;43493;53.098;6.064;2022-07-05T10:23:12;23.30;49.30
57664;DHT22;43493;53.098;6.064;2022-07-05T10:25:41;23.30;49.50
57664;DHT22;43493;53.098;6.064;2022-07-05T10:28:08;23.20;49.70
57664;DHT22;43493;53.098;6.064;2022-07-05T10:30:35;23.20;50.30
57664;DHT22;43493;53.098;6.064;2022-07-05T10:33:06;23.30;50.40
57664;DHT22;43493;53.098;6.064;2022-07-05T10:35:33;23.40;49.80
57664;DHT22;43493;53.098;6.064;2022-07-05T10:38:00;23.40;49.60
57664;DHT22;43493;53.098;6.064;2022-07-05T10:40:26;23.50;49.90
57664;DHT22;43493;53.098;6.064;2022-07-05T10:42:59;23.50;50.70
57664;DHT22;43493;53.098;6.064;2022-07-05T10:45:33;23.50;50.70
57664;DHT22;43493;53.098;6.064;2022-07-05T10:48:27;23.40;50.60
57664;DHT22;43493;53.098;6.064;2022-07-05T10:51:00;23.30;51.80
57664;DHT22;43493;53.098;6.064;2022-07-05T10:53:27;23.20;51.70
57664;DHT22;43493;53.098;6.064;2022-07-05T10:55:54;23.20;50.80
57664;DHT22;43493;53.098;6.064;2022-07-05T11:00:48;23.00;49.50
57664;DHT22;43493;53.098;6.064;2022-07-05T11:06:19;23.10;50.30
57664;DHT22;43493;53.098;6.064;2022-07-05T11:14:02;22.80;50.50
57664;DHT22;43493;53.098;6.064;2022-07-05T11:16:30;22.80;50.80
57664;DHT22;43493;53.098;6.064;2022-07-05T11:19:16;22.70;50.50
57664;DHT22;43493;53.098;6.064;2022-07-05T11:22:05;22.70;50.80
57664;DHT22;43493;53.098;6.064;2022-07-05T11:24:36;22.70;50.70
57664;DHT22;43493;53.098;6.064;2022-07-05T11:27:09;22.60;52.30
57664;DHT22;43493;53.098;6.064;2022-07-05T11:29:46;22.50;54.10
57664;DHT22;43493;53.098;6.064;2022-07-05T11:34:40;22.20;56.30
57664;DHT22;43493;53.098;6.064;2022-07-05T11:37:23;22.00;57.90
57664;DHT22;43493;53.098;6.064;2022-07-05T11:45:08;21.70;60.00
57664;DHT22;43493;53.098;6.064;2022-07-05T11:47:35;21.60;61.20
57664;DHT22;43493;53.098;6.064;2022-07-05T11:50:01;21.70;61.00
57664;DHT22;43493;53.098;6.064;2022-07-05T11:52:32;21.80;59.00
57664;DHT22;43493;53.098;6.064;2022-07-05T11:55:05;21.80;58.80
57664;DHT22;43493;53.098;6.064;2022-07-05T11:57:31;21.90;58.60
57664;DHT22;43493;53.098;6.064;2022-07-05T11:59:57;21.90;59.40
57664;DHT22;43493;53.098;6.064;2022-07-05T12:02:23;22.00;59.90
57664;DHT22;43493;53.098;6.064;2022-07-05T12:04:54;22.10;59.90
57664;DHT22;43493;53.098;6.064;2022-07-05T12:07:35;22.10;60.30
57664;DHT22;43493;53.098;6.064;2022-07-05T12:10:02;22.10;59.50
57664;DHT22;43493;53.098;6.064;2022-07-05T12:12:47;22.10;59.50
57664;DHT22;43493;53.098;6.064;2022-07-05T12:15:20;22.20;57.90
57664;DHT22;43493;53.098;6.064;2022-07-05T12:17:50;22.20;57.30
57664;DHT22;43493;53.098;6.064;2022-07-05T12:20:24;22.20;57.40
57664;DHT22;43493;53.098;6.064;2022-07-05T12:22:50;22.30;56.70
57664;DHT22;43493;53.098;6.064;2022-07-05T12:25:19;22.40;57.10
57664;DHT22;43493;53.098;6.064;2022-07-05T12:27:46;22.50;56.80
57664;DHT22;43493;53.098;6.064;2022-07-05T12:30:14;22.70;55.60
57664;DHT22;43493;53.098;6.064;2022-07-05T12:33:08;22.70;55.40
57664;DHT22;43493;53.098;6.064;2022-07-05T12:35:42;22.70;55.40
57664;DHT22;43493;53.098;6.064;2022-07-05T12:38:09;22.70;55.70
57664;DHT22;43493;53.098;6.064;2022-07-05T12:40:37;22.80;55.80
57664;DHT22;43493;53.098;6.064;2022-07-05T12:43:11;22.80;55.40
57664;DHT22;43493;53.098;6.064;2022-07-05T12:45:39;22.80;55.70
57664;DHT22;43493;53.098;6.064;2022-07-05T12:48:06;22.80;56.00
57664;DHT22;43493;53.098;6.064;2022-07-05T12:50:51;22.70;55.50
57664;DHT22;43493;53.098;6.064;2022-07-05T12:53:20;22.70;55.10
57664;DHT22;43493;53.098;6.064;2022-07-05T12:56:09;22.60;55.00
57664;DHT22;43493;53.098;6.064;2022-07-05T12:59:11;22.60;54.60
57664;DHT22;43493;53.098;6.064;2022-07-05T13:01:40;22.60;54.20
57664;DHT22;43493;53.098;6.064;2022-07-05T13:04:16;22.60;54.30
57664;DHT22;43493;53.098;6.064;2022-07-05T13:06:43;22.60;54.60
57664;DHT22;43493;53.098;6.064;2022-07-05T13:09:11;22.60;53.70
57664;DHT22;43493;53.098;6.064;2022-07-05T13:11:37;22.60;54.40
57664;DHT22;43493;53.098;6.064;2022-07-05T13:14:03;22.60;54.60
57664;DHT22;43493;53.098;6.064;2022-07-05T13:16:29;22.70;54.20
57664;DHT22;43493;53.098;6.064;2022-07-05T13:18:55;22.60;54.20
57664;DHT22;43493;53.098;6.064;2022-07-05T13:21:30;22.70;54.70
57664;DHT22;43493;53.098;6.064;2022-07-05T13:23:56;22.70;55.40
57664;DHT22;43493;53.098;6.064;2022-07-05T13:26:22;22.90;56.10
57664;DHT22;43493;53.098;6.064;2022-07-05T13:28:48;22.80;54.90
57664;DHT22;43493;53.098;6.064;2022-07-05T13:31:13;22.80;54.50
57664;DHT22;43493;53.098;6.064;2022-07-05T13:33:39;22.80;54.00
57664;DHT22;43493;53.098;6.064;2022-07-05T13:36:05;22.70;54.30
57664;DHT22;43493;53.098;6.064;2022-07-05T13:38:31;22.70;54.80
57664;DHT22;43493;53.098;6.064;2022-07-05T13:40:56;22.60;54.40
57664;DHT22;43493;53.098;6.064;2022-07-05T13:43:22;22.40;54.90
57664;DHT22;43493;53.098;6.064;2022-07-05T13:45:48;22.30;55.00
57664;DHT22;43493;53.098;6.064;2022-07-05T13:48:13;22.20;55.00
57664;DHT22;43493;53.098;6.064;2022-07-05T13:50:39;22.20;55.60
57664;DHT22;43493;53.098;6.064;2022-07-05T13:53:05;22.10;56.00
57664;DHT22;43493;53.098;6.064;2022-07-05T13:55:31;22.00;56.50
57664;DHT22;43493;53.098;6.064;2022-07-05T13:57:57;22.10;55.90
57664;DHT22;43493;53.098;6.064;2022-07-05T14:00:23;22.00;55.80
57664;DHT22;43493;53.098;6.064;2022-07-05T14:02:51;22.10;54.90
57664;DHT22;43493;53.098;6.064;2022-07-05T14:05:16;22.10;54.60
57664;DHT22;43493;53.098;6.064;2022-07-05T14:07:43;22.10;55.40
57664;DHT22;43493;53.098;6.064;2022-07-05T14:10:09;22.10;54.90
57664;DHT22;43493;53.098;6.064;2022-07-05T14:12:35;22.00;55.40
57664;DHT22;43493;53.098;6.064;2022-07-05T14:15:01;22.00;56.10
57664;DHT22;43493;53.098;6.064;2022-07-05T14:17:26;22.00;56.20
57664;DHT22;43493;53.098;6.064;2022-07-05T14:19:52;21.90;56.40
57664;DHT22;43493;53.098;6.064;2022-07-05T14:22:17;21.80;56.60
57664;DHT22;43493;53.098;6.064;2022-07-05T14:24:43;21.70;57.30
57664;DHT22;43493;53.098;6.064;2022-07-05T14:27:09;21.80;58.20
57664;DHT22;43493;53.098;6.064;2022-07-05T14:29:35;21.90;58.70
57664;DHT22;43493;53.098;6.064;2022-07-05T14:32:01;21.90;58.70
57664;DHT22;43493;53.098;6.064;2022-07-05T14:34:26;21.90;58.90
57664;DHT22;43493;53.098;6.064;2022-07-05T14:36:55;21.80;58.70
57664;DHT22;43493;53.098;6.064;2022-07-05T14:39:21;21.80;59.10
57664;DHT22;43493;53.098;6.064;2022-07-05T14:41:46;21.70;59.30
57664;DHT22;43493;53.098;6.064;2022-07-05T14:44:12;21.50;59.60
57664;DHT22;43493;53.098;6.064;2022-07-05T14:46:39;21.40;60.10
57664;DHT22;43493;53.098;6.064;2022-07-05T14:49:04;21.30;61.00
57664;DHT22;43493;53.098;6.064;2022-07-05T14:51:30;21.20;61.80
57664;DHT22;43493;53.098;6.064;2022-07-05T14:53:58;21.20;62.20
57664;DHT22;43493;53.098;6.064;2022-07-05T14:56:24;21.10;62.70
57664;DHT22;43493;53.098;6.064;2022-07-05T14:58:49;21.10;62.90
57664;DHT22;43493;53.098;6.064;2022-07-05T15:01:16;21.20;63.30
57664;DHT22;43493;53.098;6.064;2022-07-05T15:03:43;21.40;63.60
57664;DHT22;43493;53.098;6.064;2022-07-05T15:06:09;21.50;62.60
57664;DHT22;43493;53.098;6.064;2022-07-05T15:08:36;21.70;61.50
57664;DHT22;43493;53.098;6.064;2022-07-05T15:11:02;21.70;61.20
57664;DHT22;43493;53.098;6.064;2022-07-05T15:13:30;21.80;61.00
57664;DHT22;43493;53.098;6.064;2022-07-05T15:15:56;21.90;60.60
57664;DHT22;43493;53.098;6.064;2022-07-05T15:18:23;22.00;60.10
57664;DHT22;43493;53.098;6.064;2022-07-05T15:20:50;22.00;58.10
57664;DHT22;43493;53.098;6.064;2022-07-05T15:23:20;22.00;57.80
57664;DHT22;43493;53.098;6.064;2022-07-05T15:25:45;22.00;57.40
57664;DHT22;43493;53.098;6.064;2022-07-05T15:28:11;22.00;58.00
57664;DHT22;43493;53.098;6.064;2022-07-05T15:30:38;22.00;57.20
57664;DHT22;43493;53.098;6.064;2022-07-05T15:33:05;22.00;57.70
57664;DHT22;43493;53.098;6.064;2022-07-05T15:35:33;22.00;58.20
57664;DHT22;43493;53.098;6.064;2022-07-05T15:37:59;21.90;57.10
57664;DHT22;43493;53.098;6.064;2022-07-05T15:40:24;21.70;56.80
57664;DHT22;43493;53.098;6.064;2022-07-05T15:42:50;21.60;56.90
57664;DHT22;43493;53.098;6.064;2022-07-05T15:45:16;21.60;57.30
57664;DHT22;43493;53.098;6.064;2022-07-05T15:47:42;21.70;57.90
57664;DHT22;43493;53.098;6.064;2022-07-05T15:50:09;21.60;58.10
57664;DHT22;43493;53.098;6.064;2022-07-05T15:52:36;21.60;58.50
57664;DHT22;43493;53.098;6.064;2022-07-05T15:55:03;21.50;58.80
57664;DHT22;43493;53.098;6.064;2022-07-05T15:57:29;21.50;57.70
57664;DHT22;43493;53.098;6.064;2022-07-05T15:59:54;21.40;58.10
57664;DHT22;43493;53.098;6.064;2022-07-05T16:02:22;21.30;58.60
57664;DHT22;43493;53.098;6.064;2022-07-05T16:04:49;21.20;59.40
57664;DHT22;43493;53.098;6.064;2022-07-05T16:07:15;21.20;59.70
57664;DHT22;43493;53.098;6.064;2022-07-05T16:09:40;21.10;59.90
57664;DHT22;43493;53.098;6.064;2022-07-05T16:12:06;21.00;60.10
57664;DHT22;43493;53.098;6.064;2022-07-05T16:14:32;21.00;60.80
57664;DHT22;43493;53.098;6.064;2022-07-05T16:16:58;21.00;60.60
57664;DHT22;43493;53.098;6.064;2022-07-05T16:19:24;20.90;60.80
57664;DHT22;43493;53.098;6.064;2022-07-05T16:21:50;20.80;61.70
57664;DHT22;43493;53.098;6.064;2022-07-05T16:24:19;20.90;62.60
57664;DHT22;43493;53.098;6.064;2022-07-05T16:26:46;20.80;61.90
57664;DHT22;43493;53.098;6.064;2022-07-05T16:29:12;20.80;62.40
57664;DHT22;43493;53.098;6.064;2022-07-05T16:31:38;20.80;62.60
57664;DHT22;43493;53.098;6.064;2022-07-05T16:34:04;20.70;62.40
57664;DHT22;43493;53.098;6.064;2022-07-05T16:36:30;20.70;61.70
57664;DHT22;43493;53.098;6.064;2022-07-05T16:38:56;20.60;61.40
57664;DHT22;43493;53.098;6.064;2022-07-05T16:41:22;20.50;61.50
57664;DHT22;43493;53.098;6.064;2022-07-05T16:43:49;20.50;61.80
57664;DHT22;43493;53.098;6.064;2022-07-05T16:46:16;20.40;62.40
57664;DHT22;43493;53.098;6.064;2022-07-05T16:48:43;20.40;62.50
57664;DHT22;43493;53.098;6.064;2022-07-05T16:51:11;20.30;63.60
57664;DHT22;43493;53.098;6.064;2022-07-05T16:53:38;20.30;65.00
57664;DHT22;43493;53.098;6.064;2022-07-05T16:56:09;20.20;65.30
57664;DHT22;43493;53.098;6.064;2022-07-05T16:58:51;20.30;65.40
57664;DHT22;43493;53.098;6.064;2022-07-05T17:01:19;20.30;64.70
57664;DHT22;43493;53.098;6.064;2022-07-05T17:03:47;20.30;64.00